createdAt,value
2017-11-22T00:00:23.462Z,997.4
2017-11-22T00:01:24.851Z,997.4
2017-11-22T00:02:26.240Z,997.4
2017-11-22T00:03:27.626Z,997.4
2017-11-22T00:04:29.014Z,997.4
2017-11-22T00:05:30.409Z,997.4
2017-11-22T00:06:31.800Z,997.3
2017-11-22T00:07:33.181Z,997.2
2017-11-22T00:08:34.570Z,997.3
2017-11-22T00:09:35.958Z,997.3
2017-11-22T00:10:37.351Z,997.3
2017-11-22T00:11:38.736Z,997.3
2017-11-22T00:12:40.126Z,997.3
2017-11-22T00:13:41.508Z,997.3
2017-11-22T00:14:42.898Z,997.4
2017-11-22T00:15:44.287Z,997.3
2017-11-22T00:16:45.673Z,997.3
2017-11-22T00:17:47.069Z,997.3
2017-11-22T00:18:48.448Z,997.3
2017-11-22T00:19:49.834Z,997.3
2017-11-22T00:20:51.218Z,997.3
2017-11-22T00:21:52.607Z,997.3
2017-11-22T00:22:53.993Z,997.4
2017-11-22T00:23:55.381Z,997.4
2017-11-22T00:24:56.771Z,997.4
2017-11-22T00:25:58.164Z,997.4
2017-11-22T00:26:59.549Z,997.3
2017-11-22T00:28:00.933Z,997.3
2017-11-22T00:29:02.321Z,997.4
2017-11-22T00:30:03.711Z,997.3
2017-11-22T00:31:05.103Z,997.3
2017-11-22T00:32:06.493Z,997.4
2017-11-22T00:33:07.880Z,997.4
2017-11-22T00:34:09.266Z,997.4
2017-11-22T00:35:10.651Z,997.4
2017-11-22T00:36:12.042Z,997.4
2017-11-22T00:37:13.430Z,997.3
2017-11-22T00:38:14.817Z,997.4
2017-11-22T00:39:16.208Z,997.3
2017-11-22T00:40:17.591Z,997.4
2017-11-22T00:41:18.976Z,997.3
2017-11-22T00:42:20.364Z,997.3
2017-11-22T00:43:21.751Z,997.3
2017-11-22T00:44:23.140Z,997.4
2017-11-22T00:45:24.533Z,997.4
2017-11-22T00:46:25.922Z,997.4
2017-11-22T00:47:27.306Z,997.4
2017-11-22T00:48:28.692Z,997.4
2017-11-22T00:49:30.078Z,997.4
2017-11-22T00:50:31.467Z,997.5
2017-11-22T00:51:32.854Z,997.4
2017-11-22T00:52:34.239Z,997.4
2017-11-22T00:53:35.637Z,997.4
2017-11-22T00:54:37.017Z,997.4
2017-11-22T00:55:38.406Z,997.4
2017-11-22T00:56:39.794Z,997.4
2017-11-22T00:57:41.181Z,997.3
2017-11-22T00:58:42.569Z,997.3
2017-11-22T00:59:43.957Z,997.3
2017-11-22T01:00:45.349Z,997.3
2017-11-22T01:01:46.737Z,997.2
2017-11-22T01:02:48.127Z,997.2
2017-11-22T01:03:49.509Z,997.3
2017-11-22T01:04:50.899Z,997.2
2017-11-22T01:05:52.286Z,997.2
2017-11-22T01:06:53.673Z,997.2
2017-11-22T01:07:55.065Z,997.3
2017-11-22T01:08:56.451Z,997.2
2017-11-22T01:09:57.841Z,997.2
2017-11-22T01:10:59.230Z,997.2
2017-11-22T01:12:00.612Z,997.1
2017-11-22T01:13:02.000Z,997.2
2017-11-22T01:14:03.389Z,997.2
2017-11-22T01:15:04.779Z,997.3
2017-11-22T01:16:06.166Z,997.1
2017-11-22T01:17:07.552Z,997.2
2017-11-22T01:18:08.940Z,997.1
2017-11-22T01:19:10.329Z,997.1
2017-11-22T01:20:11.719Z,997.1
2017-11-22T01:21:13.108Z,997.1
2017-11-22T01:22:14.494Z,997.1
2017-11-22T01:23:15.882Z,997.1
2017-11-22T01:24:17.269Z,997.0
2017-11-22T01:25:18.654Z,997.1
2017-11-22T01:26:20.050Z,997.1
2017-11-22T01:27:21.429Z,997.1
2017-11-22T01:28:22.815Z,997.1
2017-11-22T01:29:24.205Z,997.1
2017-11-22T01:30:25.594Z,997.1
2017-11-22T01:31:26.976Z,997.1
2017-11-22T01:32:28.363Z,997.2
2017-11-22T01:33:29.753Z,997.2
2017-11-22T01:34:31.140Z,997.2
2017-11-22T01:35:32.528Z,997.2
2017-11-22T01:36:33.967Z,997.2
2017-11-22T01:37:35.354Z,997.2
2017-11-22T01:38:36.744Z,997.2
2017-11-22T01:39:38.130Z,997.2
2017-11-22T01:40:39.518Z,997.2
2017-11-22T01:41:40.906Z,997.3
2017-11-22T01:42:42.300Z,997.2
2017-11-22T01:43:43.686Z,997.3
2017-11-22T01:44:45.072Z,997.2
2017-11-22T01:45:46.461Z,997.3
2017-11-22T01:46:47.845Z,997.4
2017-11-22T01:47:49.232Z,997.3
2017-11-22T01:48:50.623Z,997.2
2017-11-22T01:49:52.009Z,997.2
2017-11-22T01:50:53.400Z,997.1
2017-11-22T01:51:54.786Z,997.1
2017-11-22T01:52:56.171Z,997.1
2017-11-22T01:53:57.559Z,997.1
2017-11-22T01:54:58.945Z,997.0
2017-11-22T01:56:00.336Z,997.0
2017-11-22T01:57:01.723Z,996.9
2017-11-22T01:58:03.131Z,997.0
2017-11-22T01:59:04.498Z,996.9
2017-11-22T02:00:05.884Z,996.9
2017-11-22T02:01:07.267Z,996.9
2017-11-22T02:02:08.654Z,997.0
2017-11-22T02:03:10.039Z,996.9
2017-11-22T02:04:11.433Z,996.9
2017-11-22T02:05:12.820Z,996.9
2017-11-22T02:06:14.214Z,996.8
2017-11-22T02:07:15.591Z,996.8
2017-11-22T02:08:16.983Z,996.8
2017-11-22T02:09:18.369Z,996.9
2017-11-22T02:10:19.756Z,996.9
2017-11-22T02:11:21.144Z,996.8
2017-11-22T02:12:22.532Z,996.9
2017-11-22T02:13:23.919Z,996.8
2017-11-22T02:14:25.305Z,996.8
2017-11-22T02:15:26.692Z,996.9
2017-11-22T02:16:28.077Z,996.9
2017-11-22T02:17:29.465Z,996.9
2017-11-22T02:18:30.856Z,996.9
2017-11-22T02:19:32.245Z,996.8
2017-11-22T02:20:33.633Z,996.8
2017-11-22T02:21:35.020Z,996.9
2017-11-22T02:22:36.405Z,996.7
2017-11-22T02:23:37.788Z,996.8
2017-11-22T02:24:39.175Z,996.7
2017-11-22T02:25:40.566Z,996.7
2017-11-22T02:26:41.956Z,996.8
2017-11-22T02:27:43.342Z,996.7
2017-11-22T02:28:44.728Z,996.8
2017-11-22T02:29:46.114Z,996.8
2017-11-22T02:30:47.505Z,996.7
2017-11-22T02:31:48.893Z,996.7
2017-11-22T02:32:50.284Z,996.7
2017-11-22T02:33:51.670Z,996.7
2017-11-22T02:34:53.061Z,996.7
2017-11-22T02:35:54.487Z,996.7
2017-11-22T02:36:55.872Z,996.6
2017-11-22T02:37:57.258Z,996.7
2017-11-22T02:38:58.649Z,996.6
2017-11-22T02:40:00.039Z,996.7
2017-11-22T02:41:01.438Z,996.6
2017-11-22T02:42:02.815Z,996.7
2017-11-22T02:43:04.203Z,996.7
2017-11-22T02:44:05.591Z,996.8
2017-11-22T02:45:06.978Z,996.6
2017-11-22T02:46:08.368Z,996.6
2017-11-22T02:47:09.760Z,996.6
2017-11-22T02:48:11.156Z,996.6
2017-11-22T02:49:12.539Z,996.6
2017-11-22T02:50:13.924Z,996.6
2017-11-22T02:51:15.372Z,996.5
2017-11-22T02:52:16.755Z,996.5
2017-11-22T02:53:18.142Z,996.4
2017-11-22T02:54:19.535Z,996.4
2017-11-22T02:55:20.926Z,996.5
2017-11-22T02:56:22.315Z,996.5
2017-11-22T02:57:23.702Z,996.5
2017-11-22T02:58:25.095Z,996.5
2017-11-22T02:59:26.481Z,996.5
2017-11-22T03:00:27.868Z,996.6
2017-11-22T03:01:29.260Z,996.6
2017-11-22T03:02:30.648Z,996.6
2017-11-22T03:03:32.035Z,996.6
2017-11-22T03:04:33.422Z,996.6
2017-11-22T03:05:34.814Z,996.6
2017-11-22T03:06:36.201Z,996.5
2017-11-22T03:07:37.590Z,996.5
2017-11-22T03:08:38.975Z,996.5
2017-11-22T03:09:40.364Z,996.5
2017-11-22T03:10:41.749Z,996.6
2017-11-22T03:11:43.137Z,996.4
2017-11-22T03:12:44.527Z,996.6
2017-11-22T03:13:45.921Z,996.4
2017-11-22T03:14:47.311Z,996.4
2017-11-22T03:15:48.697Z,996.4
2017-11-22T03:16:50.086Z,996.4
2017-11-22T03:17:51.470Z,996.4
2017-11-22T03:18:52.858Z,996.5
2017-11-22T03:19:54.246Z,996.4
2017-11-22T03:20:55.638Z,996.4
2017-11-22T03:21:57.026Z,996.4
2017-11-22T03:22:58.413Z,996.3
2017-11-22T03:23:59.803Z,996.5
2017-11-22T03:25:01.204Z,996.4
2017-11-22T03:26:02.598Z,996.3
2017-11-22T03:27:03.983Z,996.4
2017-11-22T03:28:05.370Z,996.3
2017-11-22T03:29:06.761Z,996.3
2017-11-22T03:30:08.151Z,996.2
2017-11-22T03:31:09.538Z,996.2
2017-11-22T03:32:10.928Z,996.3
2017-11-22T03:33:12.308Z,996.3
2017-11-22T03:34:13.697Z,996.3
2017-11-22T03:35:15.083Z,996.2
2017-11-22T03:36:16.474Z,996.2
2017-11-22T03:37:17.876Z,996.2
2017-11-22T03:38:19.253Z,996.1
2017-11-22T03:39:20.640Z,996.1
2017-11-22T03:40:22.028Z,996.1
2017-11-22T03:41:23.414Z,996.2
2017-11-22T03:42:24.804Z,996.1
2017-11-22T03:43:26.195Z,996.1
2017-11-22T03:44:27.580Z,996.2
2017-11-22T03:45:28.965Z,996.2
2017-11-22T03:46:30.352Z,996.3
2017-11-22T03:47:31.738Z,996.1
2017-11-22T03:48:33.127Z,996.1
2017-11-22T03:49:34.514Z,996.1
2017-11-22T03:50:35.899Z,996.1
2017-11-22T03:51:37.293Z,996.1
2017-11-22T03:52:38.677Z,996.1
2017-11-22T03:53:40.067Z,996.1
2017-11-22T03:54:41.457Z,996.1
2017-11-22T03:55:42.844Z,996.0
2017-11-22T03:56:44.237Z,996.0
2017-11-22T03:57:45.616Z,996.0
2017-11-22T03:58:47.001Z,996.1
2017-11-22T03:59:48.390Z,996.0
2017-11-22T04:00:49.777Z,996.0
2017-11-22T04:01:51.165Z,996.1
2017-11-22T04:02:52.551Z,996.1
2017-11-22T04:03:53.937Z,996.1
2017-11-22T04:04:55.328Z,996.0
2017-11-22T04:05:56.716Z,996.0
2017-11-22T04:06:58.103Z,996.0
2017-11-22T04:07:59.493Z,996.0
2017-11-22T04:09:00.878Z,996.0
2017-11-22T04:10:02.267Z,996.1
2017-11-22T04:11:03.649Z,996.0
2017-11-22T04:12:05.041Z,996.0
2017-11-22T04:13:06.434Z,996.0
2017-11-22T04:14:07.823Z,996.0
2017-11-22T04:15:09.210Z,996.0
2017-11-22T04:16:10.595Z,996.0
2017-11-22T04:17:11.982Z,996.1
2017-11-22T04:18:13.367Z,996.0
2017-11-22T04:19:14.756Z,996.1
2017-11-22T04:20:16.142Z,996.1
2017-11-22T04:21:17.534Z,996.1
2017-11-22T04:22:18.915Z,996.2
2017-11-22T04:23:20.301Z,996.3
2017-11-22T04:24:21.687Z,996.2
2017-11-22T04:25:23.078Z,996.2
2017-11-22T04:26:24.462Z,996.2
2017-11-22T04:27:25.849Z,996.2
2017-11-22T04:28:27.236Z,996.2
2017-11-22T04:29:28.635Z,996.3
2017-11-22T04:30:30.006Z,996.2
2017-11-22T04:31:31.392Z,996.2
2017-11-22T04:32:32.778Z,996.2
2017-11-22T04:33:34.165Z,996.1
2017-11-22T04:34:35.555Z,996.1
2017-11-22T04:35:36.944Z,996.1
2017-11-22T04:36:38.329Z,996.2
2017-11-22T04:37:39.716Z,996.1
2017-11-22T04:38:41.103Z,996.1
2017-11-22T04:39:42.486Z,996.2
2017-11-22T04:40:43.875Z,996.1
2017-11-22T04:41:45.268Z,996.1
2017-11-22T04:42:46.657Z,996.1
2017-11-22T04:43:48.045Z,996.2
2017-11-22T04:44:49.437Z,996.1
2017-11-22T04:45:50.820Z,996.2
2017-11-22T04:46:52.205Z,996.2
2017-11-22T04:47:53.593Z,996.2
2017-11-22T04:48:54.980Z,996.1
2017-11-22T04:49:56.367Z,996.1
2017-11-22T04:50:57.751Z,996.1
2017-11-22T04:51:59.138Z,996.1
2017-11-22T04:53:00.522Z,996.1
2017-11-22T04:54:01.911Z,996.1
2017-11-22T04:55:03.300Z,996.2
2017-11-22T04:56:04.686Z,996.2
2017-11-22T04:57:06.073Z,996.1
2017-11-22T04:58:07.455Z,996.1
2017-11-22T04:59:08.843Z,996.1
2017-11-22T05:00:10.231Z,996.2
2017-11-22T05:01:11.628Z,996.1
2017-11-22T05:02:13.006Z,996.2
2017-11-22T05:03:14.397Z,996.1
2017-11-22T05:04:15.785Z,996.1
2017-11-22T05:05:17.171Z,996.1
2017-11-22T05:06:18.554Z,996.1
2017-11-22T05:07:19.939Z,996.1
2017-11-22T05:08:21.328Z,996.1
2017-11-22T05:09:22.714Z,996.1
2017-11-22T05:10:24.101Z,996.0
2017-11-22T05:11:25.496Z,996.0
2017-11-22T05:12:26.876Z,996.0
2017-11-22T05:13:28.261Z,996.1
2017-11-22T05:14:29.647Z,996.0
2017-11-22T05:15:31.075Z,996.0
2017-11-22T05:16:32.462Z,995.9
2017-11-22T05:17:33.851Z,996.0
2017-11-22T05:18:35.239Z,996.0
2017-11-22T05:19:36.625Z,995.9
2017-11-22T05:20:38.010Z,995.9
2017-11-22T05:21:39.400Z,996.0
2017-11-22T05:22:40.797Z,996.0
2017-11-22T05:23:42.180Z,995.9
2017-11-22T05:24:43.568Z,995.9
2017-11-22T05:25:44.956Z,995.9
2017-11-22T05:26:46.343Z,995.9
2017-11-22T05:27:47.725Z,995.9
2017-11-22T05:28:49.123Z,995.8
2017-11-22T05:29:50.500Z,995.9
2017-11-22T05:30:51.889Z,995.8
2017-11-22T05:31:53.276Z,995.8
2017-11-22T05:32:54.663Z,995.9
2017-11-22T05:33:56.051Z,995.8
2017-11-22T05:34:57.441Z,995.8
2017-11-22T05:35:58.828Z,995.9
2017-11-22T05:37:00.231Z,995.8
2017-11-22T05:38:01.602Z,995.8
2017-11-22T05:39:03.021Z,995.8
2017-11-22T05:40:04.416Z,995.8
2017-11-22T05:41:05.799Z,995.8
2017-11-22T05:42:07.191Z,995.8
2017-11-22T05:43:08.568Z,995.8
2017-11-22T05:44:10.336Z,995.8
2017-11-22T05:45:11.715Z,995.8
2017-11-22T05:46:13.108Z,995.7
2017-11-22T05:47:14.550Z,995.8
2017-11-22T05:48:15.931Z,995.7
2017-11-22T05:49:17.321Z,995.8
2017-11-22T05:50:18.705Z,995.8
2017-11-22T05:51:20.093Z,995.7
2017-11-22T05:52:21.481Z,995.7
2017-11-22T05:53:22.869Z,995.8
2017-11-22T05:54:24.292Z,995.7
2017-11-22T05:55:25.710Z,995.7
2017-11-22T05:56:27.099Z,995.8
2017-11-22T05:57:28.486Z,995.8
2017-11-22T05:58:29.872Z,995.7
2017-11-22T05:59:31.264Z,995.7
2017-11-22T06:00:32.656Z,995.7
2017-11-22T06:01:34.038Z,995.7
2017-11-22T06:02:35.424Z,995.8
2017-11-22T06:03:36.808Z,995.7
2017-11-22T06:04:38.198Z,995.7
2017-11-22T06:05:39.585Z,995.7
2017-11-22T06:06:40.988Z,995.7
2017-11-22T06:07:42.371Z,995.7
2017-11-22T06:08:43.763Z,995.7
2017-11-22T06:09:45.149Z,995.7
2017-11-22T06:10:46.538Z,995.8
2017-11-22T06:11:47.927Z,995.7
2017-11-22T06:12:49.913Z,995.8
2017-11-22T06:13:51.305Z,995.7
2017-11-22T06:14:52.691Z,995.7
2017-11-22T06:15:54.079Z,995.8
2017-11-22T06:16:55.468Z,995.7
2017-11-22T06:17:56.855Z,995.7
2017-11-22T06:18:58.244Z,995.7
2017-11-22T06:19:59.632Z,995.8
2017-11-22T06:21:01.018Z,995.8
2017-11-22T06:22:02.405Z,995.8
2017-11-22T06:23:03.793Z,995.8
2017-11-22T06:24:05.185Z,995.8
2017-11-22T06:25:06.562Z,995.9
2017-11-22T06:26:07.952Z,995.9
2017-11-22T06:27:09.339Z,995.9
2017-11-22T06:28:10.726Z,996.0
2017-11-22T06:29:12.116Z,996.0
2017-11-22T06:30:13.502Z,996.0
2017-11-22T06:31:14.882Z,996.0
2017-11-22T06:32:16.269Z,996.0
2017-11-22T06:33:17.654Z,996.0
2017-11-22T06:34:19.039Z,996.0
2017-11-22T06:35:20.427Z,996.0
2017-11-22T06:36:21.816Z,996.0
2017-11-22T06:37:23.210Z,996.0
2017-11-22T06:38:24.598Z,995.9
2017-11-22T06:39:25.990Z,996.0
2017-11-22T06:40:27.374Z,995.9
2017-11-22T06:41:28.764Z,995.9
2017-11-22T06:42:30.149Z,996.0
2017-11-22T06:43:31.536Z,996.0
2017-11-22T06:44:32.925Z,995.9
2017-11-22T06:45:34.311Z,996.0
2017-11-22T06:46:35.699Z,996.0
2017-11-22T06:47:37.093Z,995.9
2017-11-22T06:48:38.483Z,995.9
2017-11-22T06:49:39.877Z,995.9
2017-11-22T06:50:41.270Z,996.0
2017-11-22T06:51:42.675Z,996.0
2017-11-22T06:52:44.059Z,995.9
2017-11-22T06:53:45.450Z,996.0
2017-11-22T06:54:46.839Z,996.0
2017-11-22T06:55:48.228Z,996.0
2017-11-22T06:56:49.617Z,996.0
2017-11-22T06:57:51.007Z,996.1
2017-11-22T06:58:52.399Z,996.0
2017-11-22T06:59:53.789Z,996.0
2017-11-22T07:00:55.179Z,996.0
2017-11-22T07:01:56.564Z,996.0
2017-11-22T07:02:57.957Z,996.0
2017-11-22T07:03:59.347Z,996.0
2017-11-22T07:05:00.734Z,996.0
2017-11-22T07:06:02.119Z,996.0
2017-11-22T07:07:03.510Z,996.1
2017-11-22T07:08:04.898Z,996.1
2017-11-22T07:09:06.293Z,996.1
2017-11-22T07:10:07.677Z,996.1
2017-11-22T07:11:09.064Z,996.1
2017-11-22T07:12:10.453Z,996.1
2017-11-22T07:13:11.844Z,996.1
2017-11-22T07:14:13.230Z,996.1
2017-11-22T07:15:14.617Z,996.1
2017-11-22T07:16:16.009Z,996.2
2017-11-22T07:17:17.399Z,996.2
2017-11-22T07:18:18.788Z,996.2
2017-11-22T07:19:20.182Z,996.1
2017-11-22T07:20:21.584Z,996.3
2017-11-22T07:21:22.964Z,996.2
2017-11-22T07:22:24.351Z,996.2
2017-11-22T07:23:25.739Z,996.3
2017-11-22T07:24:27.137Z,996.3
2017-11-22T07:25:28.522Z,996.2
2017-11-22T07:26:29.909Z,996.3
2017-11-22T07:27:31.303Z,996.3
2017-11-22T07:28:32.691Z,996.3
2017-11-22T07:29:34.085Z,996.3
2017-11-22T07:30:35.475Z,996.4
2017-11-22T07:31:36.864Z,996.5
2017-11-22T07:32:38.255Z,996.4
2017-11-22T07:33:39.648Z,996.5
2017-11-22T07:34:41.042Z,996.4
2017-11-22T07:35:42.429Z,996.5
2017-11-22T07:36:43.818Z,996.5
2017-11-22T07:37:45.211Z,996.5
2017-11-22T07:38:46.607Z,996.5
2017-11-22T07:39:47.999Z,996.5
2017-11-22T07:40:49.386Z,996.5
2017-11-22T07:41:50.780Z,996.6
2017-11-22T07:42:52.168Z,996.5
2017-11-22T07:43:53.561Z,996.5
2017-11-22T07:44:54.948Z,996.5
2017-11-22T07:45:56.337Z,996.5
2017-11-22T07:46:57.730Z,996.5
2017-11-22T07:47:59.135Z,996.6
2017-11-22T07:49:00.536Z,996.6
2017-11-22T07:50:01.915Z,996.6
2017-11-22T07:51:03.302Z,996.7
2017-11-22T07:52:04.690Z,996.7
2017-11-22T07:53:06.085Z,996.7
2017-11-22T07:54:07.477Z,996.7
2017-11-22T07:55:08.860Z,996.6
2017-11-22T07:56:10.261Z,996.6
2017-11-22T07:57:11.647Z,996.6
2017-11-22T07:58:13.037Z,996.6
2017-11-22T07:59:14.431Z,996.6
2017-11-22T08:00:15.820Z,996.5
2017-11-22T08:01:17.213Z,996.6
2017-11-22T08:02:18.605Z,996.6
2017-11-22T08:03:19.997Z,996.5
2017-11-22T08:04:21.389Z,996.6
2017-11-22T08:05:22.777Z,996.7
2017-11-22T08:06:24.169Z,996.7
2017-11-22T08:07:25.562Z,996.7
2017-11-22T08:08:26.977Z,996.7
2017-11-22T08:09:28.345Z,996.7
2017-11-22T08:10:29.746Z,996.6
2017-11-22T08:11:31.130Z,996.6
2017-11-22T08:12:32.520Z,996.6
2017-11-22T08:13:33.910Z,996.7
2017-11-22T08:14:35.302Z,996.6
2017-11-22T08:15:36.693Z,996.6
2017-11-22T08:16:38.085Z,996.7
2017-11-22T08:17:39.479Z,996.7
2017-11-22T08:18:40.873Z,996.6
2017-11-22T08:19:42.263Z,996.7
2017-11-22T08:20:43.658Z,996.6
2017-11-22T08:21:45.055Z,996.6
2017-11-22T08:22:46.443Z,996.6
2017-11-22T08:23:47.835Z,996.6
2017-11-22T08:24:49.231Z,996.6
2017-11-22T08:25:50.620Z,996.5
2017-11-22T08:26:52.012Z,996.5
2017-11-22T08:27:53.404Z,996.5
2017-11-22T08:28:54.793Z,996.5
2017-11-22T08:29:56.187Z,996.5
2017-11-22T08:30:57.582Z,996.4
2017-11-22T08:31:58.973Z,996.4
2017-11-22T08:33:00.363Z,996.4
2017-11-22T08:34:01.756Z,996.5
2017-11-22T08:35:03.152Z,996.4
2017-11-22T08:36:04.539Z,996.5
2017-11-22T08:37:05.933Z,996.5
2017-11-22T08:38:07.329Z,996.5
2017-11-22T08:39:08.722Z,996.5
2017-11-22T08:40:10.110Z,996.4
2017-11-22T08:41:11.503Z,996.5
2017-11-22T08:42:12.894Z,996.5
2017-11-22T08:43:14.286Z,996.5
2017-11-22T08:44:15.679Z,996.6
2017-11-22T08:45:17.073Z,996.6
2017-11-22T08:46:18.470Z,996.6
2017-11-22T08:47:19.863Z,996.6
2017-11-22T08:48:21.254Z,996.6
2017-11-22T08:49:22.651Z,996.6
2017-11-22T08:50:24.111Z,996.6
2017-11-22T08:51:25.493Z,996.6
2017-11-22T08:52:26.886Z,996.6
2017-11-22T08:53:28.281Z,996.6
2017-11-22T08:54:29.673Z,996.6
2017-11-22T08:55:31.087Z,996.5
2017-11-22T08:56:32.462Z,996.4
2017-11-22T08:57:33.856Z,996.4
2017-11-22T08:58:35.254Z,996.4
2017-11-22T08:59:36.656Z,996.5
2017-11-22T09:00:38.040Z,996.4
2017-11-22T09:01:39.432Z,996.4
2017-11-22T09:02:40.826Z,996.4
2017-11-22T09:03:42.221Z,996.4
2017-11-22T09:04:43.616Z,996.4
2017-11-22T09:05:45.010Z,996.4
2017-11-22T09:06:46.407Z,996.4
2017-11-22T09:07:47.808Z,996.4
2017-11-22T09:08:49.209Z,996.4
2017-11-22T09:09:50.598Z,996.4
2017-11-22T09:10:51.992Z,996.4
2017-11-22T09:11:53.388Z,996.4
2017-11-22T09:12:54.781Z,996.5
2017-11-22T09:13:56.176Z,996.5
2017-11-22T09:14:57.571Z,996.5
2017-11-22T09:15:58.963Z,996.4
2017-11-22T09:17:00.354Z,996.4
2017-11-22T09:18:01.750Z,996.4
2017-11-22T09:19:03.145Z,996.4
2017-11-22T09:20:04.547Z,996.4
2017-11-22T09:21:05.939Z,996.4
2017-11-22T09:22:07.331Z,996.3
2017-11-22T09:23:08.724Z,996.4
2017-11-22T09:24:10.118Z,996.3
2017-11-22T09:25:11.513Z,996.3
2017-11-22T09:26:12.908Z,996.3
2017-11-22T09:27:14.306Z,996.4
2017-11-22T09:28:15.701Z,996.3
2017-11-22T09:29:17.102Z,996.4
2017-11-22T09:30:18.493Z,996.3
2017-11-22T09:31:19.887Z,996.3
2017-11-22T09:32:21.283Z,996.4
2017-11-22T09:33:22.678Z,996.4
2017-11-22T09:34:24.073Z,996.3
2017-11-22T09:35:25.470Z,996.3
2017-11-22T09:36:26.891Z,996.3
2017-11-22T09:37:28.257Z,996.3
2017-11-22T09:38:29.651Z,996.3
2017-11-22T09:39:31.043Z,996.3
2017-11-22T09:40:32.440Z,996.3
2017-11-22T09:41:33.837Z,996.3
2017-11-22T09:42:35.231Z,996.3
2017-11-22T09:43:36.628Z,996.3
2017-11-22T09:44:38.039Z,996.4
2017-11-22T09:45:39.432Z,996.4
2017-11-22T09:46:40.828Z,996.4
2017-11-22T09:47:42.222Z,996.4
2017-11-22T09:48:43.617Z,996.4
2017-11-22T09:49:45.010Z,996.4
2017-11-22T09:50:46.409Z,996.4
2017-11-22T09:51:47.803Z,996.4
2017-11-22T09:52:49.197Z,996.4
2017-11-22T09:53:50.590Z,996.4
2017-11-22T09:54:51.990Z,996.4
2017-11-22T09:55:53.385Z,996.3
2017-11-22T09:56:54.782Z,996.4
2017-11-22T09:57:56.181Z,996.4
2017-11-22T09:58:57.573Z,996.4
2017-11-22T09:59:58.967Z,996.4
2017-11-22T10:01:00.366Z,996.4
2017-11-22T10:02:01.760Z,996.4
2017-11-22T10:03:03.155Z,996.4
2017-11-22T10:04:04.553Z,996.3
2017-11-22T10:05:05.951Z,996.2
2017-11-22T10:06:07.346Z,996.3
2017-11-22T10:07:08.742Z,996.3
2017-11-22T10:08:10.136Z,996.3
2017-11-22T10:09:11.530Z,996.3
2017-11-22T10:10:12.926Z,996.2
2017-11-22T10:11:14.323Z,996.3
2017-11-22T10:12:15.720Z,996.3
2017-11-22T10:13:17.133Z,996.3
2017-11-22T10:14:18.532Z,996.3
2017-11-22T10:15:19.929Z,996.3
2017-11-22T10:16:21.324Z,996.2
2017-11-22T10:17:22.719Z,996.2
2017-11-22T10:18:24.114Z,996.3
2017-11-22T10:19:25.515Z,996.3
2017-11-22T10:20:26.908Z,996.3
2017-11-22T10:21:28.302Z,996.3
2017-11-22T10:22:29.716Z,996.3
2017-11-22T10:23:31.095Z,996.2
2017-11-22T10:24:32.489Z,996.2
2017-11-22T10:25:33.886Z,996.1
2017-11-22T10:26:35.283Z,996.2
2017-11-22T10:27:36.677Z,996.2
2017-11-22T10:28:38.072Z,996.1
2017-11-22T10:29:39.464Z,996.1
2017-11-22T10:30:40.862Z,996.1
2017-11-22T10:31:42.262Z,996.1
2017-11-22T10:32:43.681Z,996.1
2017-11-22T10:33:45.062Z,996.1
2017-11-22T10:34:46.460Z,996.1
2017-11-22T10:35:47.857Z,996.1
2017-11-22T10:36:49.253Z,996.1
2017-11-22T10:37:50.693Z,996.1
2017-11-22T10:38:52.091Z,996.0
2017-11-22T10:39:53.492Z,996.0
2017-11-22T10:40:54.892Z,996.0
2017-11-22T10:41:56.290Z,996.0
2017-11-22T10:42:57.688Z,996.0
2017-11-22T10:43:59.086Z,996.0
2017-11-22T10:45:00.483Z,996.0
2017-11-22T10:46:01.883Z,996.0
2017-11-22T10:47:03.284Z,996.0
2017-11-22T10:48:04.682Z,995.9
2017-11-22T10:49:06.081Z,996.0
2017-11-22T10:50:07.481Z,996.0
2017-11-22T10:51:08.881Z,996.0
2017-11-22T10:52:10.295Z,996.0
2017-11-22T10:53:11.697Z,995.9
2017-11-22T10:54:13.096Z,996.0
2017-11-22T10:55:14.497Z,995.9
2017-11-22T10:56:15.897Z,996.0
2017-11-22T10:57:17.296Z,996.1
2017-11-22T10:58:18.703Z,996.1
2017-11-22T10:59:20.099Z,996.1
2017-11-22T11:00:21.499Z,996.1
2017-11-22T11:01:22.900Z,996.1
2017-11-22T11:02:24.303Z,996.1
2017-11-22T11:03:25.702Z,996.0
2017-11-22T11:04:27.105Z,996.0
2017-11-22T11:05:28.498Z,996.1
2017-11-22T11:06:29.898Z,996.1
2017-11-22T11:07:31.298Z,996.0
2017-11-22T11:08:32.698Z,996.0
2017-11-22T11:09:34.099Z,995.9
2017-11-22T11:10:35.495Z,995.9
2017-11-22T11:11:36.894Z,995.9
2017-11-22T11:12:38.292Z,995.9
2017-11-22T11:13:39.698Z,995.9
2017-11-22T11:14:41.091Z,995.9
2017-11-22T11:15:42.511Z,995.9
2017-11-22T11:16:43.896Z,995.8
2017-11-22T11:17:45.289Z,995.8
2017-11-22T11:18:46.684Z,995.8
2017-11-22T11:19:48.101Z,995.8
2017-11-22T11:20:49.484Z,995.7
2017-11-22T11:21:50.879Z,995.8
2017-11-22T11:22:52.278Z,995.7
2017-11-22T11:23:53.680Z,995.8
2017-11-22T11:24:55.078Z,995.8
2017-11-22T11:25:56.472Z,995.8
2017-11-22T11:26:57.872Z,995.7
2017-11-22T11:27:59.273Z,995.7
2017-11-22T11:29:00.674Z,995.8
2017-11-22T11:30:02.072Z,995.7
2017-11-22T11:31:03.483Z,995.7
2017-11-22T11:32:04.879Z,995.7
2017-11-22T11:33:06.277Z,995.7
2017-11-22T11:34:07.679Z,995.6
2017-11-22T11:35:09.079Z,995.7
2017-11-22T11:36:10.480Z,995.6
2017-11-22T11:37:11.886Z,995.6
2017-11-22T11:38:13.280Z,995.6
2017-11-22T11:39:14.680Z,995.6
2017-11-22T11:40:16.077Z,995.6
2017-11-22T11:41:17.479Z,995.6
2017-11-22T11:42:18.908Z,995.5
2017-11-22T11:43:20.336Z,995.5
2017-11-22T11:44:21.781Z,995.5
2017-11-22T11:45:23.259Z,995.5
2017-11-22T11:46:24.648Z,995.5
2017-11-22T11:47:26.050Z,995.5
2017-11-22T11:48:27.453Z,995.5
2017-11-22T11:49:28.858Z,995.5
2017-11-22T11:50:30.263Z,995.5
2017-11-22T11:51:31.668Z,995.5
2017-11-22T11:52:33.072Z,995.5
2017-11-22T11:53:34.475Z,995.5
2017-11-22T11:54:35.873Z,995.5
2017-11-22T11:55:37.312Z,995.5
2017-11-22T11:56:38.681Z,995.4
2017-11-22T11:57:40.087Z,995.4
2017-11-22T11:58:41.498Z,995.4
2017-11-22T11:59:42.902Z,995.4
2017-11-22T12:00:44.306Z,995.4
2017-11-22T12:01:45.709Z,995.3
2017-11-22T12:02:47.117Z,995.3
2017-11-22T12:03:48.521Z,995.3
2017-11-22T12:04:49.928Z,995.3
2017-11-22T12:05:51.332Z,995.3
2017-11-22T12:06:52.739Z,995.3
2017-11-22T12:07:54.140Z,995.3
2017-11-22T12:08:55.546Z,995.3
2017-11-22T12:09:56.950Z,995.3
2017-11-22T12:10:58.361Z,995.2
2017-11-22T12:11:59.763Z,995.2
2017-11-22T12:13:01.173Z,995.3
2017-11-22T12:14:02.576Z,995.2
2017-11-22T12:15:03.982Z,995.2
2017-11-22T12:16:05.382Z,995.2
2017-11-22T12:17:06.789Z,995.2
2017-11-22T12:18:08.197Z,995.1
2017-11-22T12:19:09.601Z,995.1
2017-11-22T12:20:11.009Z,995.1
2017-11-22T12:21:12.417Z,995.1
2017-11-22T12:22:13.819Z,995.1
2017-11-22T12:23:15.270Z,995.1
2017-11-22T12:24:16.640Z,995.0
2017-11-22T12:25:18.045Z,995.0
2017-11-22T12:26:19.452Z,995.0
2017-11-22T12:27:20.857Z,995.0
2017-11-22T12:28:22.263Z,995.0
2017-11-22T12:29:23.667Z,994.9
2017-11-22T12:30:25.070Z,994.9
2017-11-22T12:31:26.471Z,994.9
2017-11-22T12:32:27.872Z,994.8
2017-11-22T12:33:29.273Z,994.8
2017-11-22T12:34:30.678Z,994.8
2017-11-22T12:35:32.081Z,994.8
2017-11-22T12:36:33.491Z,994.8
2017-11-22T12:37:34.885Z,994.8
2017-11-22T12:38:36.288Z,994.8
2017-11-22T12:39:37.690Z,994.8
2017-11-22T12:40:39.093Z,994.8
2017-11-22T12:41:40.493Z,994.8
2017-11-22T12:42:41.900Z,994.8
2017-11-22T12:43:43.300Z,994.8
2017-11-22T12:44:44.699Z,994.8
2017-11-22T12:45:46.097Z,994.9
2017-11-22T12:46:47.500Z,994.9
2017-11-22T12:47:48.901Z,994.8
2017-11-22T12:48:50.306Z,994.9
2017-11-22T12:49:51.711Z,995.0
2017-11-22T12:50:53.109Z,994.9
2017-11-22T12:51:54.509Z,994.9
2017-11-22T12:52:55.909Z,994.9
2017-11-22T12:53:57.309Z,994.9
2017-11-22T12:54:58.710Z,994.9
2017-11-22T12:56:00.113Z,994.8
2017-11-22T12:57:01.516Z,994.8
2017-11-22T12:58:02.911Z,994.8
2017-11-22T12:59:04.308Z,994.8
2017-11-22T13:00:05.712Z,994.8
2017-11-22T13:01:07.109Z,994.8
2017-11-22T13:02:08.510Z,994.8
2017-11-22T13:03:09.909Z,994.7
2017-11-22T13:04:11.313Z,994.8
2017-11-22T13:05:12.714Z,994.8
2017-11-22T13:06:14.113Z,994.7
2017-11-22T13:07:15.507Z,994.7
2017-11-22T13:08:16.909Z,994.7
2017-11-22T13:09:18.312Z,994.7
2017-11-22T13:10:19.709Z,994.7